createdAt,value
2018-02-18T00:00:19.672Z,19.10
2018-02-18T00:01:19.665Z,19.10
2018-02-18T00:02:19.628Z,19.30
2018-02-18T00:03:19.608Z,19.50
2018-02-18T00:04:19.605Z,19.70
2018-02-18T00:05:19.570Z,18.70
2018-02-18T00:06:19.548Z,19.30
2018-02-18T00:07:19.554Z,19.30
2018-02-18T00:08:19.523Z,19.20
2018-02-18T00:09:19.489Z,19.60
2018-02-18T00:10:19.465Z,19.30
2018-02-18T00:11:19.464Z,19.10
2018-02-18T00:12:19.428Z,19.30
2018-02-18T00:13:19.406Z,19.40
2018-02-18T00:14:19.386Z,20.00
2018-02-18T00:15:19.365Z,19.20
2018-02-18T00:16:19.347Z,19.40
2018-02-18T00:17:19.341Z,19.00
2018-02-18T00:18:19.304Z,19.70
2018-02-18T00:19:19.296Z,19.40
2018-02-18T00:20:19.264Z,19.00
2018-02-18T00:21:19.242Z,18.40
2018-02-18T00:22:19.225Z,19.00
2018-02-18T00:23:19.224Z,19.30
2018-02-18T00:24:19.184Z,19.50
2018-02-18T00:25:19.166Z,18.90
2018-02-18T00:26:19.143Z,19.00
2018-02-18T00:27:19.118Z,19.10
2018-02-18T00:28:20.831Z,19.40
2018-02-18T00:29:19.097Z,18.80
2018-02-18T00:30:19.066Z,19.00
2018-02-18T00:31:19.041Z,18.80
2018-02-18T00:32:19.042Z,18.30
2018-02-18T00:33:19.004Z,18.20
2018-02-18T00:34:18.981Z,17.90
2018-02-18T00:35:18.962Z,18.60
2018-02-18T00:36:18.938Z,18.50
2018-02-18T00:37:18.921Z,19.00
2018-02-18T00:38:18.912Z,18.30
2018-02-18T00:39:18.882Z,18.30
2018-02-18T00:40:18.858Z,18.80
2018-02-18T00:41:18.846Z,19.60
2018-02-18T00:42:19.369Z,19.80
2018-02-18T00:43:18.798Z,19.00
2018-02-18T00:44:18.795Z,18.60
2018-02-18T00:45:18.760Z,18.40
2018-02-18T00:46:18.737Z,18.60
2018-02-18T00:47:18.730Z,19.00
2018-02-18T00:48:18.695Z,19.00
2018-02-18T00:49:18.694Z,18.80
2018-02-18T00:50:18.653Z,19.10
2018-02-18T00:51:18.632Z,18.50
2018-02-18T00:52:18.616Z,18.20
2018-02-18T00:53:18.610Z,19.20
2018-02-18T00:54:18.571Z,19.40
2018-02-18T00:55:18.553Z,19.00
2018-02-18T00:56:18.534Z,19.20
2018-02-18T00:57:18.511Z,18.60
2018-02-18T00:58:18.491Z,18.70
2018-02-18T00:59:18.481Z,19.00
2018-02-18T01:00:18.451Z,18.40
2018-02-18T01:01:18.430Z,18.70
2018-02-18T01:02:18.408Z,18.90
2018-02-18T01:03:18.382Z,18.80
2018-02-18T01:04:18.384Z,18.50
2018-02-18T01:05:18.363Z,18.30
2018-02-18T01:06:18.325Z,18.70
2018-02-18T01:07:18.302Z,18.10
2018-02-18T01:08:18.284Z,18.20
2018-02-18T01:09:18.261Z,18.40
2018-02-18T01:10:18.260Z,18.40
2018-02-18T01:11:18.220Z,18.70
2018-02-18T01:12:18.210Z,18.00
2018-02-18T01:13:18.180Z,17.90
2018-02-18T01:14:18.156Z,18.70
2018-02-18T01:15:18.137Z,18.70
2018-02-18T01:16:18.129Z,18.60
2018-02-18T01:17:18.110Z,17.80
2018-02-18T01:18:18.073Z,18.20
2018-02-18T01:19:18.054Z,18.60
2018-02-18T01:20:18.035Z,18.60
2018-02-18T01:21:18.015Z,19.00
2018-02-18T01:22:18.010Z,18.40
2018-02-18T01:23:17.974Z,18.40
2018-02-18T01:24:17.952Z,18.60
2018-02-18T01:25:17.931Z,18.60
2018-02-18T01:26:17.910Z,18.30
2018-02-18T01:27:17.894Z,18.80
2018-02-18T01:28:17.886Z,18.10
2018-02-18T01:29:17.846Z,17.80
2018-02-18T01:30:17.826Z,19.10
2018-02-18T01:31:17.804Z,18.40
2018-02-18T01:32:17.786Z,18.30
2018-02-18T01:33:17.767Z,18.80
2018-02-18T01:34:17.757Z,18.20
2018-02-18T01:35:17.731Z,18.40
2018-02-18T01:36:18.334Z,19.00
2018-02-18T01:37:17.683Z,19.70
2018-02-18T01:38:17.658Z,19.70
2018-02-18T01:39:17.655Z,18.30
2018-02-18T01:40:17.615Z,19.20
2018-02-18T01:41:17.596Z,19.10
2018-02-18T01:42:17.576Z,19.80
2018-02-18T01:43:17.554Z,19.30
2018-02-18T01:44:17.538Z,19.20
2018-02-18T01:45:17.527Z,19.10
2018-02-18T01:46:17.494Z,19.00
2018-02-18T01:47:17.468Z,18.80
2018-02-18T01:48:19.334Z,18.50
2018-02-18T01:49:17.428Z,19.00
2018-02-18T01:50:17.403Z,18.60
2018-02-18T01:51:17.399Z,18.60
2018-02-18T01:52:17.364Z,18.70
2018-02-18T01:53:17.340Z,18.50
2018-02-18T01:54:17.321Z,18.90
2018-02-18T01:55:17.316Z,18.20
2018-02-18T01:56:17.280Z,19.10
2018-02-18T01:57:17.261Z,18.60
2018-02-18T01:58:17.239Z,18.50
2018-02-18T01:59:17.216Z,17.80
2018-02-18T02:00:17.195Z,18.60
2018-02-18T02:01:17.196Z,18.20
2018-02-18T02:02:17.200Z,18.00
2018-02-18T02:03:17.131Z,18.50
2018-02-18T02:04:17.109Z,18.90
2018-02-18T02:05:17.091Z,19.00
2018-02-18T02:06:17.083Z,18.60
2018-02-18T02:07:17.047Z,18.80
2018-02-18T02:08:17.023Z,19.20
2018-02-18T02:09:17.004Z,19.10
2018-02-18T02:10:16.982Z,18.60
2018-02-18T02:11:16.961Z,18.60
2018-02-18T02:12:16.956Z,18.30
2018-02-18T02:13:16.918Z,17.60
2018-02-18T02:14:16.915Z,17.80
2018-02-18T02:15:16.880Z,17.80
2018-02-18T02:16:16.860Z,17.50
2018-02-18T02:17:16.837Z,18.40
2018-02-18T02:18:16.812Z,18.10
2018-02-18T02:19:16.795Z,17.90
2018-02-18T02:20:16.789Z,18.10
2018-02-18T02:21:16.755Z,17.40
2018-02-18T02:22:16.748Z,17.20
2018-02-18T02:23:16.710Z,17.00
2018-02-18T02:24:16.688Z,17.00
2018-02-18T02:25:16.668Z,16.70
2018-02-18T02:26:16.651Z,16.70
2018-02-18T02:27:16.626Z,16.70
2018-02-18T02:28:16.620Z,16.00
2018-02-18T02:29:16.598Z,16.90
2018-02-18T02:30:16.562Z,16.30
2018-02-18T02:31:16.542Z,16.30
2018-02-18T02:32:16.524Z,15.90
2018-02-18T02:33:16.504Z,16.40
2018-02-18T02:34:16.493Z,16.00
2018-02-18T02:35:16.456Z,16.00
2018-02-18T02:36:16.438Z,16.10
2018-02-18T02:37:16.416Z,16.00
2018-02-18T02:38:16.406Z,15.10
2018-02-18T02:39:16.375Z,15.40
2018-02-18T02:40:16.354Z,15.20
2018-02-18T02:41:16.339Z,15.20
2018-02-18T02:42:16.311Z,14.90
2018-02-18T02:43:16.305Z,14.90
2018-02-18T02:44:16.277Z,14.70
2018-02-18T02:45:16.256Z,15.10
2018-02-18T02:46:16.875Z,14.90
2018-02-18T02:47:16.207Z,15.20
2018-02-18T02:48:16.200Z,15.10
2018-02-18T02:49:16.174Z,15.10
2018-02-18T02:50:16.142Z,15.40
2018-02-18T02:51:16.135Z,15.60
2018-02-18T02:52:16.156Z,14.20
2018-02-18T02:53:16.078Z,15.10
2018-02-18T02:54:16.076Z,14.60
2018-02-18T02:55:16.040Z,14.90
2018-02-18T02:56:16.013Z,15.30
2018-02-18T02:57:16.010Z,15.40
2018-02-18T02:58:15.973Z,14.90
2018-02-18T02:59:15.952Z,15.60
2018-02-18T03:00:15.933Z,15.00
2018-02-18T03:01:15.917Z,15.00
2018-02-18T03:02:15.892Z,15.00
2018-02-18T03:03:15.886Z,15.30
2018-02-18T03:04:15.846Z,15.70
2018-02-18T03:05:16.370Z,15.90
2018-02-18T03:06:15.804Z,15.10
2018-02-18T03:07:15.786Z,15.80
2018-02-18T03:08:15.766Z,15.80
2018-02-18T03:09:15.757Z,15.40
2018-02-18T03:10:15.722Z,14.60
2018-02-18T03:11:15.700Z,15.70
2018-02-18T03:12:15.677Z,14.90
2018-02-18T03:13:15.662Z,15.70
2018-02-18T03:14:15.653Z,15.00
2018-02-18T03:15:15.617Z,15.70
2018-02-18T03:16:15.596Z,15.60
2018-02-18T03:17:15.574Z,15.60
2018-02-18T03:18:15.572Z,15.10
2018-02-18T03:19:15.544Z,15.50
2018-02-18T03:20:15.509Z,15.70
2018-02-18T03:21:15.490Z,15.80
2018-02-18T03:22:15.466Z,15.70
2018-02-18T03:23:17.337Z,15.50
2018-02-18T03:24:15.424Z,15.50
2018-02-18T03:25:15.400Z,15.10
2018-02-18T03:26:15.396Z,15.80
2018-02-18T03:27:15.876Z,15.30
2018-02-18T03:28:15.359Z,15.50
2018-02-18T03:29:15.320Z,15.20
2018-02-18T03:30:15.299Z,15.00
2018-02-18T03:31:15.277Z,15.50
2018-02-18T03:32:15.275Z,15.20
2018-02-18T03:33:15.232Z,15.50
2018-02-18T03:34:15.211Z,15.90
2018-02-18T03:35:15.193Z,15.80
2018-02-18T03:36:15.190Z,15.90
2018-02-18T03:37:15.149Z,15.40
2018-02-18T03:38:15.144Z,15.80
2018-02-18T03:39:15.111Z,16.10
2018-02-18T03:40:15.084Z,15.60
2018-02-18T03:41:15.080Z,15.20
2018-02-18T03:42:15.039Z,15.60
2018-02-18T03:43:15.038Z,14.90
2018-02-18T03:44:14.997Z,15.60
2018-02-18T03:45:14.981Z,16.00
2018-02-18T03:46:15.838Z,15.70
2018-02-18T03:47:14.936Z,15.70
2018-02-18T03:48:14.930Z,15.70
2018-02-18T03:49:14.901Z,16.00
2018-02-18T03:50:14.876Z,15.40
2018-02-18T03:51:14.852Z,15.60
2018-02-18T03:52:14.847Z,15.30
2018-02-18T03:53:14.807Z,15.60
2018-02-18T03:54:14.787Z,15.40
2018-02-18T03:55:14.767Z,16.00
2018-02-18T03:56:14.743Z,14.80
2018-02-18T03:57:14.739Z,15.60
2018-02-18T03:58:14.708Z,15.60
2018-02-18T03:59:14.683Z,15.50
2018-02-18T04:00:15.374Z,15.60
2018-02-18T04:01:14.659Z,15.60
2018-02-18T04:02:14.619Z,15.80
2018-02-18T04:03:14.597Z,16.10
2018-02-18T04:04:14.577Z,15.50
2018-02-18T04:05:14.557Z,16.00
2018-02-18T04:06:14.537Z,15.50
2018-02-18T04:07:14.538Z,15.50
2018-02-18T04:08:14.491Z,15.40
2018-02-18T04:09:14.468Z,15.40
2018-02-18T04:10:14.448Z,15.80
2018-02-18T04:11:14.426Z,15.50
2018-02-18T04:12:14.407Z,16.30
2018-02-18T04:13:14.417Z,15.60
2018-02-18T04:14:14.362Z,15.10
2018-02-18T04:15:14.343Z,16.00
2018-02-18T04:16:14.320Z,15.60
2018-02-18T04:17:14.301Z,15.70
2018-02-18T04:18:14.275Z,15.50
2018-02-18T04:19:14.271Z,15.30
2018-02-18T04:20:14.253Z,15.80
2018-02-18T04:21:14.217Z,15.50
2018-02-18T04:22:14.197Z,14.70
2018-02-18T04:23:14.169Z,15.70
2018-02-18T04:24:14.433Z,15.70
2018-02-18T04:25:14.135Z,15.50
2018-02-18T04:26:15.839Z,15.50
2018-02-18T04:27:14.089Z,16.10
2018-02-18T04:28:14.065Z,15.70
2018-02-18T04:29:14.046Z,15.30
2018-02-18T04:30:14.038Z,16.20
2018-02-18T04:31:14.002Z,16.00
2018-02-18T04:32:14.045Z,15.60
2018-02-18T04:33:13.959Z,15.60
2018-02-18T04:34:13.941Z,15.60
2018-02-18T04:35:13.935Z,16.20
2018-02-18T04:36:13.896Z,15.80
2018-02-18T04:37:13.874Z,15.30
2018-02-18T04:38:13.853Z,15.70
2018-02-18T04:39:13.832Z,15.80
2018-02-18T04:40:13.830Z,15.80
2018-02-18T04:41:15.376Z,15.80
2018-02-18T04:42:13.768Z,16.00
2018-02-18T04:43:13.744Z,15.60
2018-02-18T04:44:13.725Z,15.80
2018-02-18T04:45:14.340Z,15.90
2018-02-18T04:46:15.340Z,15.50
2018-02-18T04:47:13.658Z,15.50
2018-02-18T04:48:13.640Z,15.90
2018-02-18T04:49:13.617Z,15.90
2018-02-18T04:50:13.597Z,16.30
2018-02-18T04:51:13.590Z,16.00
2018-02-18T04:52:13.573Z,15.80
2018-02-18T04:53:13.534Z,16.20
2018-02-18T04:54:13.515Z,16.60
2018-02-18T04:55:14.379Z,15.70
2018-02-18T04:56:13.474Z,15.90
2018-02-18T04:57:13.449Z,16.30
2018-02-18T04:58:13.441Z,16.50
2018-02-18T04:59:13.409Z,16.20
2018-02-18T05:00:13.385Z,16.40
2018-02-18T05:01:13.365Z,15.40
2018-02-18T05:02:13.337Z,16.20
2018-02-18T05:03:13.337Z,16.60
2018-02-18T05:04:13.298Z,16.20
2018-02-18T05:05:13.296Z,16.10
2018-02-18T05:06:13.255Z,16.20
2018-02-18T05:07:13.234Z,15.60
2018-02-18T05:08:13.216Z,16.50
2018-02-18T05:09:13.193Z,15.90
2018-02-18T05:10:13.172Z,16.10
2018-02-18T05:11:13.163Z,16.60
2018-02-18T05:12:13.130Z,16.30
2018-02-18T05:13:13.103Z,16.10
2018-02-18T05:14:13.102Z,16.40
2018-02-18T05:15:13.072Z,16.60
2018-02-18T05:16:13.043Z,16.40
2018-02-18T05:17:13.020Z,15.90
2018-02-18T05:18:13.001Z,16.50
2018-02-18T05:19:13.874Z,15.90
2018-02-18T05:20:12.960Z,16.60
2018-02-18T05:21:12.932Z,16.40
2018-02-18T05:22:13.876Z,16.40
2018-02-18T05:23:12.893Z,16.70
2018-02-18T05:24:12.891Z,16.40
2018-02-18T05:25:12.849Z,16.70
2018-02-18T05:26:12.847Z,16.70
2018-02-18T05:27:12.806Z,16.90
2018-02-18T05:28:12.784Z,16.90
2018-02-18T05:29:12.764Z,17.20
2018-02-18T05:30:12.744Z,16.50
2018-02-18T05:31:12.721Z,17.30
2018-02-18T05:32:12.713Z,17.80
2018-02-18T05:33:12.681Z,17.60
2018-02-18T05:34:12.658Z,17.50
2018-02-18T05:35:12.635Z,17.10
2018-02-18T05:36:12.628Z,17.90
2018-02-18T05:37:12.590Z,17.40
2018-02-18T05:38:12.571Z,17.40
2018-02-18T05:39:12.565Z,17.40
2018-02-18T05:40:12.532Z,17.80
2018-02-18T05:41:12.507Z,17.40
2018-02-18T05:42:12.485Z,17.20
2018-02-18T05:43:12.465Z,17.80
2018-02-18T05:44:12.453Z,17.10
2018-02-18T05:45:12.434Z,17.70
2018-02-18T05:46:12.399Z,17.10
2018-02-18T05:47:12.379Z,17.80
2018-02-18T05:48:12.357Z,17.60
2018-02-18T05:49:12.336Z,17.20
2018-02-18T05:50:12.324Z,17.50
2018-02-18T05:51:12.434Z,17.60
2018-02-18T05:52:12.275Z,18.30
2018-02-18T05:53:12.841Z,18.50
2018-02-18T05:54:12.230Z,17.80
2018-02-18T05:55:12.220Z,18.00
2018-02-18T05:56:12.184Z,18.30
2018-02-18T05:57:12.179Z,18.40
2018-02-18T05:58:12.144Z,17.50
2018-02-18T05:59:12.118Z,18.30
2018-02-18T06:00:12.874Z,18.10
2018-02-18T06:01:12.932Z,18.00
2018-02-18T06:02:12.841Z,18.80
2018-02-18T06:03:12.038Z,18.90
2018-02-18T06:04:12.016Z,17.70
2018-02-18T06:05:16.343Z,18.50
2018-02-18T06:06:11.970Z,18.60
2018-02-18T06:07:11.967Z,17.90
2018-02-18T06:08:11.930Z,18.00
2018-02-18T06:09:11.980Z,18.50
2018-02-18T06:10:11.884Z,19.30
2018-02-18T06:11:11.863Z,18.40
2018-02-18T06:12:12.377Z,18.50
2018-02-18T06:13:11.935Z,18.90
2018-02-18T06:14:11.800Z,18.80
2018-02-18T06:15:11.788Z,18.80
2018-02-18T06:16:11.755Z,18.90
2018-02-18T06:17:11.741Z,18.70
2018-02-18T06:18:11.711Z,19.50
2018-02-18T06:19:11.712Z,19.40
2018-02-18T06:20:11.673Z,19.60
2018-02-18T06:21:11.649Z,19.00
2018-02-18T06:22:11.629Z,19.30
2018-02-18T06:23:11.609Z,18.90
2018-02-18T06:24:11.587Z,19.00
2018-02-18T06:25:32.608Z,19.30
2018-02-18T06:26:11.543Z,19.60
2018-02-18T06:27:11.521Z,19.60
2018-02-18T06:28:11.505Z,19.40
2018-02-18T06:29:11.483Z,19.70
2018-02-18T06:30:13.842Z,19.50
2018-02-18T06:31:11.956Z,19.40
2018-02-18T06:32:11.422Z,20.10
2018-02-18T06:33:11.408Z,20.30
2018-02-18T06:34:11.373Z,20.50
2018-02-18T06:35:11.351Z,19.80
2018-02-18T06:36:11.348Z,21.00
2018-02-18T06:37:11.311Z,20.10
2018-02-18T06:38:11.337Z,20.50
2018-02-18T06:39:11.264Z,20.30
2018-02-18T06:40:11.246Z,20.50
2018-02-18T06:41:11.219Z,20.50
2018-02-18T06:42:11.216Z,20.80
2018-02-18T06:43:11.181Z,21.00
2018-02-18T06:44:11.158Z,21.10
2018-02-18T06:45:11.141Z,20.60
2018-02-18T06:46:11.119Z,21.00
2018-02-18T06:47:11.110Z,20.70
2018-02-18T06:48:11.084Z,20.80
2018-02-18T06:49:11.054Z,20.80
2018-02-18T06:50:11.029Z,21.20
2018-02-18T06:51:11.010Z,21.40
2018-02-18T06:52:10.987Z,20.70
2018-02-18T06:53:10.983Z,20.90
2018-02-18T06:54:10.942Z,21.00
2018-02-18T06:55:10.925Z,21.60
2018-02-18T06:56:10.901Z,20.50
2018-02-18T06:57:10.876Z,21.50
2018-02-18T06:58:10.859Z,21.40
2018-02-18T06:59:10.853Z,21.30
2018-02-18T07:00:10.831Z,22.10
2018-02-18T07:01:10.795Z,21.80
2018-02-18T07:02:10.772Z,21.50
2018-02-18T07:03:10.750Z,21.60
2018-02-18T07:04:10.731Z,21.70
2018-02-18T07:05:10.710Z,20.90
2018-02-18T07:06:10.706Z,21.50
2018-02-18T07:07:11.382Z,21.70
2018-02-18T07:08:10.645Z,22.60
2018-02-18T07:09:10.620Z,21.40
2018-02-18T07:10:10.626Z,21.40
2018-02-18T07:11:10.578Z,22.00
2018-02-18T07:12:10.576Z,21.90
2018-02-18T07:13:10.536Z,23.00
2018-02-18T07:14:10.517Z,21.70
2018-02-18T07:15:10.492Z,22.20
2018-02-18T07:16:10.483Z,21.80
2018-02-18T07:17:11.342Z,21.60
2018-02-18T07:18:10.429Z,22.20
2018-02-18T07:19:10.404Z,22.20
2018-02-18T07:20:10.385Z,21.70
2018-02-18T07:21:10.364Z,22.80
2018-02-18T07:22:10.356Z,22.60
2018-02-18T07:23:10.323Z,21.70
2018-02-18T07:24:10.300Z,21.60
2018-02-18T07:25:10.341Z,22.50
2018-02-18T07:26:10.256Z,21.90
2018-02-18T07:27:10.236Z,21.50
2018-02-18T07:28:10.213Z,22.20
2018-02-18T07:29:10.211Z,21.60
2018-02-18T07:30:10.199Z,23.30
2018-02-18T07:31:10.150Z,21.40
2018-02-18T07:32:10.133Z,22.20
2018-02-18T07:33:10.111Z,20.50
2018-02-18T07:34:10.086Z,21.10
2018-02-18T07:35:11.844Z,21.20
2018-02-18T07:36:10.058Z,21.60
2018-02-18T07:37:10.060Z,21.30
2018-02-18T07:38:10.008Z,20.90
2018-02-18T07:39:09.976Z,21.80
2018-02-18T07:40:10.877Z,21.70
2018-02-18T07:41:09.937Z,21.60
2018-02-18T07:42:09.916Z,22.20
2018-02-18T07:43:09.910Z,22.30
2018-02-18T07:44:09.874Z,21.70
2018-02-18T07:45:09.855Z,22.40
2018-02-18T07:46:09.829Z,22.30
2018-02-18T07:47:09.806Z,22.40
2018-02-18T07:48:09.806Z,21.60
2018-02-18T07:49:09.765Z,22.70
2018-02-18T07:50:09.745Z,22.50
2018-02-18T07:51:09.723Z,22.80
2018-02-18T07:52:09.704Z,22.80
2018-02-18T07:53:09.681Z,22.60
2018-02-18T07:54:09.678Z,23.40
2018-02-18T07:55:11.350Z,22.90
2018-02-18T07:56:11.344Z,23.20
2018-02-18T07:57:09.599Z,23.50
2018-02-18T07:58:09.576Z,23.10
2018-02-18T07:59:10.414Z,23.60
2018-02-18T08:00:09.547Z,23.30
2018-02-18T08:01:10.346Z,23.00
2018-02-18T08:02:09.492Z,23.60
2018-02-18T08:03:09.470Z,24.00
2018-02-18T08:04:09.448Z,22.50
2018-02-18T08:05:09.445Z,23.00
2018-02-18T08:06:09.405Z,23.40
2018-02-18T08:07:09.387Z,23.00
2018-02-18T08:08:09.367Z,23.20
2018-02-18T08:09:09.340Z,23.70
2018-02-18T08:10:09.324Z,23.90
2018-02-18T08:11:09.314Z,23.40
2018-02-18T08:12:09.280Z,23.40
2018-02-18T08:13:09.262Z,23.20
2018-02-18T08:14:09.237Z,23.70
2018-02-18T08:15:10.844Z,22.80
2018-02-18T08:16:09.198Z,23.80
2018-02-18T08:17:09.193Z,24.00
2018-02-18T08:18:09.154Z,23.70
2018-02-18T08:19:09.134Z,22.90
2018-02-18T08:20:09.111Z,23.80
2018-02-18T08:21:10.846Z,23.00
2018-02-18T08:22:09.097Z,23.10
2018-02-18T08:23:09.053Z,23.50
2018-02-18T08:24:09.031Z,23.70
2018-02-18T08:25:09.010Z,23.40
2018-02-18T08:26:08.987Z,23.30
2018-02-18T08:27:08.970Z,23.90
2018-02-18T08:28:08.966Z,23.40
2018-02-18T08:29:08.930Z,23.40
2018-02-18T08:30:08.925Z,23.40
2018-02-18T08:31:08.886Z,23.90
2018-02-18T08:32:08.860Z,24.10
2018-02-18T08:33:08.845Z,22.80
2018-02-18T08:34:08.836Z,23.60
2018-02-18T08:35:08.802Z,22.60
2018-02-18T08:36:08.783Z,24.00
2018-02-18T08:37:08.761Z,24.30
2018-02-18T08:38:08.758Z,23.60
2018-02-18T08:39:10.347Z,23.50
2018-02-18T08:40:08.701Z,23.20
2018-02-18T08:41:08.676Z,23.00
2018-02-18T08:42:08.706Z,23.60
2018-02-18T08:43:09.347Z,23.40
2018-02-18T08:44:08.633Z,23.00
2018-02-18T08:45:08.603Z,23.00
2018-02-18T08:46:08.582Z,22.30
2018-02-18T08:47:08.557Z,22.30
2018-02-18T08:48:08.554Z,23.20
2018-02-18T08:49:08.532Z,23.00
2018-02-18T08:50:08.498Z,23.10
2018-02-18T08:51:08.487Z,22.90
2018-02-18T08:52:08.463Z,22.20
2018-02-18T08:53:08.435Z,22.80
2018-02-18T08:54:08.415Z,23.20
2018-02-18T08:55:08.410Z,23.80
2018-02-18T08:56:08.376Z,23.20
2018-02-18T08:57:08.356Z,23.10
2018-02-18T08:58:08.337Z,23.70
2018-02-18T08:59:08.848Z,23.50
2018-02-18T09:00:08.306Z,23.30
2018-02-18T09:01:08.276Z,23.90
2018-02-18T09:02:08.880Z,23.40
2018-02-18T09:03:08.237Z,23.20
2018-02-18T09:04:08.229Z,23.40
2018-02-18T09:05:08.193Z,23.50
2018-02-18T09:06:08.194Z,23.50
2018-02-18T09:07:08.158Z,23.50
2018-02-18T09:08:08.137Z,23.40
2018-02-18T09:09:08.116Z,23.60
2018-02-18T09:10:08.125Z,23.40
2018-02-18T09:11:08.090Z,23.50
2018-02-18T09:12:29.071Z,23.10
2018-02-18T09:13:08.047Z,23.50
2018-02-18T09:14:08.015Z,23.20
2018-02-18T09:15:09.850Z,24.40
2018-02-18T09:16:07.989Z,23.00
2018-02-18T09:17:07.957Z,23.20
2018-02-18T09:18:07.939Z,22.90
2018-02-18T09:19:07.918Z,22.90
2018-02-18T09:20:07.897Z,23.30
2018-02-18T09:21:07.894Z,22.60
2018-02-18T09:22:07.854Z,22.60
2018-02-18T09:23:07.853Z,23.00
2018-02-18T09:24:07.817Z,22.20
2018-02-18T09:25:07.798Z,23.10
2018-02-18T09:26:07.779Z,23.00
2018-02-18T09:27:07.760Z,22.40
2018-02-18T09:28:07.757Z,23.30
2018-02-18T09:29:07.715Z,22.60
2018-02-18T09:30:07.699Z,22.30
2018-02-18T09:31:07.680Z,22.60
2018-02-18T09:32:07.660Z,23.10
2018-02-18T09:33:07.656Z,22.50
2018-02-18T09:34:07.635Z,21.80
2018-02-18T09:35:07.604Z,21.20
2018-02-18T09:36:08.368Z,22.00
2018-02-18T09:37:07.565Z,20.90
2018-02-18T09:38:07.561Z,22.20
2018-02-18T09:39:07.526Z,22.00
2018-02-18T09:40:07.504Z,21.90
2018-02-18T09:41:07.484Z,21.90
2018-02-18T09:42:07.465Z,22.50
2018-02-18T09:43:07.445Z,22.30
2018-02-18T09:44:07.444Z,22.10
2018-02-18T09:45:07.406Z,21.30
2018-02-18T09:46:07.389Z,22.10
2018-02-18T09:47:07.365Z,22.10
2018-02-18T09:48:07.863Z,22.20
2018-02-18T09:49:07.346Z,22.10
2018-02-18T09:50:07.327Z,22.10
2018-02-18T09:51:07.289Z,21.70
2018-02-18T09:52:07.276Z,21.60
2018-02-18T09:53:07.255Z,21.70
2018-02-18T09:54:07.252Z,21.90
2018-02-18T09:55:07.214Z,21.40
2018-02-18T09:56:07.197Z,21.60
2018-02-18T09:57:07.179Z,21.30
2018-02-18T09:58:07.157Z,21.50
2018-02-18T09:59:07.136Z,21.10
2018-02-18T10:00:07.131Z,21.10
2018-02-18T10:01:07.095Z,20.70
2018-02-18T10:02:07.078Z,21.60
2018-02-18T10:03:07.078Z,22.40
2018-02-18T10:04:07.046Z,22.10
2018-02-18T10:05:09.852Z,21.40
2018-02-18T10:06:07.003Z,21.80
2018-02-18T10:07:06.986Z,22.10
2018-02-18T10:08:06.982Z,20.90
2018-02-18T10:09:06.948Z,20.70
2018-02-18T10:10:06.928Z,20.30
2018-02-18T10:11:06.909Z,21.90
2018-02-18T10:12:06.891Z,21.00
2018-02-18T10:13:06.889Z,21.70
2018-02-18T10:14:07.355Z,21.20
2018-02-18T10:15:06.833Z,21.40
2018-02-18T10:16:06.817Z,21.40
2018-02-18T10:17:06.801Z,22.20
2018-02-18T10:18:06.838Z,21.90
2018-02-18T10:19:06.773Z,20.20
2018-02-18T10:20:06.740Z,19.80
2018-02-18T10:21:08.354Z,20.10
2018-02-18T10:22:06.705Z,19.80
2018-02-18T10:23:06.684Z,19.30
2018-02-18T10:24:06.682Z,19.90
2018-02-18T10:25:06.650Z,20.20
2018-02-18T10:26:06.629Z,19.70
2018-02-18T10:27:06.611Z,19.40
2018-02-18T10:28:06.593Z,19.20
2018-02-18T10:29:06.577Z,19.80
2018-02-18T10:30:06.571Z,20.00
2018-02-18T10:31:06.565Z,19.70
2018-02-18T10:32:06.520Z,20.10
2018-02-18T10:33:06.501Z,19.60
2018-02-18T10:34:06.478Z,19.60
2018-02-18T10:35:06.468Z,19.80
2018-02-18T10:36:06.462Z,20.20
2018-02-18T10:37:06.428Z,19.60
2018-02-18T10:38:06.411Z,19.80
2018-02-18T10:39:06.391Z,20.30
2018-02-18T10:40:06.373Z,20.00
2018-02-18T10:41:06.381Z,19.60
2018-02-18T10:42:06.352Z,19.60
2018-02-18T10:43:06.316Z,20.50
2018-02-18T10:44:06.304Z,19.60
2018-02-18T10:45:06.301Z,19.10
2018-02-18T10:46:06.267Z,19.60
2018-02-18T10:47:06.243Z,19.30
2018-02-18T10:48:06.236Z,19.20
2018-02-18T10:49:06.213Z,19.30
2018-02-18T10:50:06.192Z,19.60
2018-02-18T10:51:06.197Z,19.40
2018-02-18T10:52:06.156Z,20.30
2018-02-18T10:53:06.139Z,19.60
2018-02-18T10:54:06.196Z,19.20
2018-02-18T10:55:06.121Z,19.20
2018-02-18T10:56:06.091Z,19.30
2018-02-18T10:57:06.067Z,19.00
2018-02-18T10:58:06.861Z,19.40
2018-02-18T10:59:06.069Z,19.00
2018-02-18T11:00:06.027Z,19.20
2018-02-18T11:01:06.005Z,19.40
2018-02-18T11:02:06.019Z,19.70
2018-02-18T11:03:05.982Z,19.50
2018-02-18T11:04:05.967Z,19.10
2018-02-18T11:05:05.964Z,19.40
2018-02-18T11:06:05.971Z,19.20
2018-02-18T11:07:05.927Z,19.50
2018-02-18T11:08:05.927Z,18.90
2018-02-18T11:09:05.896Z,19.40
2018-02-18T11:10:05.873Z,19.80
2018-02-18T11:11:26.915Z,19.40
2018-02-18T11:12:06.402Z,19.60
2018-02-18T11:13:05.845Z,19.20
2018-02-18T11:14:05.825Z,19.20
2018-02-18T11:15:06.862Z,18.70
2018-02-18T11:16:05.821Z,18.60
2018-02-18T11:17:05.792Z,18.90
2018-02-18T11:18:06.394Z,18.60
2018-02-18T11:19:05.764Z,19.80
2018-02-18T11:20:05.749Z,18.90
2018-02-18T11:21:05.738Z,18.70
2018-02-18T11:22:05.740Z,19.50
2018-02-18T11:23:05.718Z,18.80
2018-02-18T11:24:05.707Z,18.90
2018-02-18T11:25:05.694Z,18.60
2018-02-18T11:26:05.683Z,18.00
2018-02-18T11:27:05.699Z,18.30
2018-02-18T11:28:05.676Z,18.30
2018-02-18T11:29:06.366Z,18.70
2018-02-18T11:30:05.637Z,18.80
2018-02-18T11:31:05.629Z,19.10
2018-02-18T11:32:05.616Z,19.00
2018-02-18T11:33:05.622Z,18.70
2018-02-18T11:34:05.595Z,18.40
2018-02-18T11:35:06.369Z,18.80
2018-02-18T11:36:05.575Z,18.60
2018-02-18T11:37:05.567Z,18.50
2018-02-18T11:38:05.571Z,17.90
2018-02-18T11:39:05.545Z,17.50
2018-02-18T11:40:05.534Z,17.90
2018-02-18T11:41:05.524Z,17.60
2018-02-18T11:42:05.564Z,17.90
2018-02-18T11:43:05.509Z,18.10
2018-02-18T11:44:05.515Z,17.70
2018-02-18T11:45:05.486Z,18.00
2018-02-18T11:46:05.495Z,18.10
2018-02-18T11:47:05.470Z,17.60
2018-02-18T11:48:05.460Z,17.40
2018-02-18T11:49:05.452Z,17.80
2018-02-18T11:50:05.440Z,17.10
2018-02-18T11:51:05.436Z,17.80
2018-02-18T11:52:05.444Z,17.10
2018-02-18T11:53:05.425Z,18.20
2018-02-18T11:54:05.405Z,17.40
2018-02-18T11:55:05.397Z,17.50
2018-02-18T11:56:05.403Z,17.40
2018-02-18T11:57:05.379Z,17.30
2018-02-18T11:58:05.372Z,16.90
2018-02-18T11:59:05.362Z,16.50
2018-02-18T12:00:05.368Z,16.40
2018-02-18T12:01:05.348Z,16.70
2018-02-18T12:02:05.336Z,17.30
2018-02-18T12:03:05.329Z,17.00
2018-02-18T12:04:05.319Z,18.10
2018-02-18T12:05:05.307Z,18.10
2018-02-18T12:06:05.313Z,17.50
2018-02-18T12:07:05.314Z,17.40
2018-02-18T12:08:05.282Z,17.00
2018-02-18T12:09:05.276Z,17.40
2018-02-18T12:10:05.265Z,16.20
2018-02-18T12:11:05.255Z,16.00
2018-02-18T12:12:05.247Z,16.20
2018-02-18T12:13:05.253Z,16.80
2018-02-18T12:14:05.229Z,16.00
2018-02-18T12:15:05.953Z,16.90
2018-02-18T12:16:05.212Z,16.30
2018-02-18T12:17:05.207Z,16.40
2018-02-18T12:18:05.221Z,16.40
2018-02-18T12:19:05.189Z,16.10
2018-02-18T12:20:05.175Z,16.50
2018-02-18T12:21:05.171Z,16.30
2018-02-18T12:22:05.165Z,16.30
2018-02-18T12:23:05.156Z,16.10
2018-02-18T12:24:05.160Z,16.40
2018-02-18T12:25:05.138Z,15.70
2018-02-18T12:26:05.129Z,16.20
2018-02-18T12:27:05.122Z,15.80
2018-02-18T12:28:05.130Z,15.60
2018-02-18T12:29:05.124Z,15.70
2018-02-18T12:30:05.114Z,16.50
2018-02-18T12:31:05.091Z,16.10
2018-02-18T12:32:05.086Z,16.10
2018-02-18T12:33:05.081Z,15.80
2018-02-18T12:34:05.083Z,16.20
2018-02-18T12:35:05.078Z,16.20
2018-02-18T12:36:05.053Z,15.30
2018-02-18T12:37:05.052Z,15.20
2018-02-18T12:38:05.043Z,15.30
2018-02-18T12:39:05.030Z,15.40
2018-02-18T12:40:05.040Z,15.60
2018-02-18T12:41:05.019Z,15.20
2018-02-18T12:42:05.013Z,15.90
2018-02-18T12:43:05.009Z,15.40
2018-02-18T12:44:04.997Z,15.10
2018-02-18T12:45:05.005Z,15.50
2018-02-18T12:46:04.985Z,16.10
2018-02-18T12:47:04.989Z,15.90
2018-02-18T12:48:04.967Z,16.00
2018-02-18T12:49:04.963Z,15.40
2018-02-18T12:50:04.953Z,15.30
2018-02-18T12:51:04.965Z,14.90
2018-02-18T12:52:04.938Z,15.50